Weather at Athens Ben Epps Airport

Public forecast

Using degrees Fahrenheit for public forecast. Weather courtesy of forecast.io.

Current aviation weather report (METAR) for Athens Ben Epps Airport

2024/06/22 04:51 (retrieved 57 minutes ago)

KAHN 220451Z AUTO 09005KT 10SM CLR 24/17 A3017 RMK AO2 SLP207 T02390167 403330189

Closest aviation forecast (TAF) to Athens Ben Epps Airport

Forecast is more than 6 hours old.

Closest forecast is Dobbins Air Reserve Base, 59.3 nm (109.9 km) W.

2024/06/21 21:16 (retrieved 9 hours ago)

TAF KMGE 212105Z 2121/2303 09008KT 9999 FEW065 QNH3010INS BECMG 2200/2201 VRB03KT 9999 SKC QNH3010INS BECMG 2212/2213 09005KT 9999 FEW250 QNH3012INS BECMG 2215/2216 10010KT 9999 FEW060 FEW250 QNH2995INS TX34/2220Z TN21/2212Z LAST NO AMDS AFT 2203 NEXT 2211